Terminal Aerodrome Forecast
Issued by NWS

Home | Current Version | Previous Version | Graphics & Text | Print | Product List | Glossary On
Versions: 1 2 3 4 5 6 7 8 9 10 11 12 13 14 15 16 17 18 19 20 21 22 23 24 25
000
FTUS43 KBIS 311439 AAD
TAFMOT
TAF AMD
KMOT 311439Z 3115/0112 22015G20KT P6SM FEW045 BKN090 OVC110
     FM312200 31020G29KT P6SM OVC008
     FM010500 30016KT P6SM OVC008=

USA.gov is the U.S. government's official web portal to all federal, state and local government web resources and services.